sensor_id;sensor_type;location;lat;lon;timestamp;P1;durP1;ratioP1;P2;durP2;ratioP2
41927;SDS011;27616;51.420;6.788;2023-09-19T00:02:18;5.05;;;1.25;;
41927;SDS011;27616;51.420;6.788;2023-09-19T00:04:43;3.90;;;1.08;;
41927;SDS011;27616;51.420;6.788;2023-09-19T00:07:09;6.65;;;1.60;;
41927;SDS011;27616;51.420;6.788;2023-09-19T00:09:35;6.55;;;1.05;;
41927;SDS011;27616;51.420;6.788;2023-09-19T00:12:06;5.20;;;1.13;;
41927;SDS011;27616;51.420;6.788;2023-09-19T00:14:34;8.60;;;1.25;;
41927;SDS011;27616;51.420;6.788;2023-09-19T00:17:03;6.80;;;1.33;;
41927;SDS011;27616;51.420;6.788;2023-09-19T00:19:34;8.15;;;1.75;;
41927;SDS011;27616;51.420;6.788;2023-09-19T00:22:00;8.77;;;2.10;;
41927;SDS011;27616;51.420;6.788;2023-09-19T00:24:26;7.47;;;2.13;;
41927;SDS011;27616;51.420;6.788;2023-09-19T00:26:53;7.13;;;2.20;;
41927;SDS011;27616;51.420;6.788;2023-09-19T00:29:20;9.30;;;2.47;;
41927;SDS011;27616;51.420;6.788;2023-09-19T00:31:49;8.77;;;2.15;;
41927;SDS011;27616;51.420;6.788;2023-09-19T00:34:15;10.18;;;2.10;;
41927;SDS011;27616;51.420;6.788;2023-09-19T00:36:41;7.80;;;1.95;;
41927;SDS011;27616;51.420;6.788;2023-09-19T00:39:08;8.23;;;2.30;;
41927;SDS011;27616;51.420;6.788;2023-09-19T00:41:35;5.13;;;1.75;;
41927;SDS011;27616;51.420;6.788;2023-09-19T00:44:01;5.65;;;1.70;;
41927;SDS011;27616;51.420;6.788;2023-09-19T00:46:29;8.32;;;1.60;;
41927;SDS011;27616;51.420;6.788;2023-09-19T00:48:57;4.47;;;1.90;;
41927;SDS011;27616;51.420;6.788;2023-09-19T00:51:24;7.65;;;1.77;;
41927;SDS011;27616;51.420;6.788;2023-09-19T00:53:52;9.85;;;2.25;;
41927;SDS011;27616;51.420;6.788;2023-09-19T00:56:19;4.80;;;1.55;;
41927;SDS011;27616;51.420;6.788;2023-09-19T00:58:46;9.00;;;2.30;;
41927;SDS011;27616;51.420;6.788;2023-09-19T01:01:13;7.57;;;1.83;;
41927;SDS011;27616;51.420;6.788;2023-09-19T01:03:40;9.93;;;1.63;;
41927;SDS011;27616;51.420;6.788;2023-09-19T01:06:07;6.75;;;1.77;;
41927;SDS011;27616;51.420;6.788;2023-09-19T01:08:38;5.40;;;1.38;;
41927;SDS011;27616;51.420;6.788;2023-09-19T01:11:06;5.07;;;1.70;;
41927;SDS011;27616;51.420;6.788;2023-09-19T01:14:00;7.30;;;2.05;;
41927;SDS011;27616;51.420;6.788;2023-09-19T01:16:56;7.70;;;1.58;;
41927;SDS011;27616;51.420;6.788;2023-09-19T01:20:01;8.30;;;1.52;;
41927;SDS011;27616;51.420;6.788;2023-09-19T01:22:53;6.63;;;1.38;;
41927;SDS011;27616;51.420;6.788;2023-09-19T01:30:56;6.13;;;1.67;;
41927;SDS011;27616;51.420;6.788;2023-09-19T01:33:24;8.10;;;1.30;;
41927;SDS011;27616;51.420;6.788;2023-09-19T01:35:51;5.95;;;1.48;;
41927;SDS011;27616;51.420;6.788;2023-09-19T01:38:18;6.25;;;1.30;;
41927;SDS011;27616;51.420;6.788;2023-09-19T01:40:48;4.88;;;1.20;;
41927;SDS011;27616;51.420;6.788;2023-09-19T01:43:43;3.15;;;1.30;;
41927;SDS011;27616;51.420;6.788;2023-09-19T01:46:24;8.63;;;1.73;;
41927;SDS011;27616;51.420;6.788;2023-09-19T01:54:36;8.23;;;1.50;;
41927;SDS011;27616;51.420;6.788;2023-09-19T01:57:16;4.00;;;1.60;;
41927;SDS011;27616;51.420;6.788;2023-09-19T01:59:48;5.57;;;1.00;;
41927;SDS011;27616;51.420;6.788;2023-09-19T02:02:19;10.10;;;1.33;;
41927;SDS011;27616;51.420;6.788;2023-09-19T02:04:48;5.07;;;1.17;;
41927;SDS011;27616;51.420;6.788;2023-09-19T02:07:16;4.93;;;1.15;;
41927;SDS011;27616;51.420;6.788;2023-09-19T02:09:42;4.18;;;1.02;;
41927;SDS011;27616;51.420;6.788;2023-09-19T02:12:08;7.25;;;1.10;;
41927;SDS011;27616;51.420;6.788;2023-09-19T02:14:34;6.97;;;1.40;;
41927;SDS011;27616;51.420;6.788;2023-09-19T02:17:02;6.57;;;1.00;;
41927;SDS011;27616;51.420;6.788;2023-09-19T02:19:32;5.82;;;1.17;;
41927;SDS011;27616;51.420;6.788;2023-09-19T02:21:59;7.50;;;1.58;;
41927;SDS011;27616;51.420;6.788;2023-09-19T02:24:25;3.38;;;1.27;;
41927;SDS011;27616;51.420;6.788;2023-09-19T02:26:52;4.10;;;1.00;;
41927;SDS011;27616;51.420;6.788;2023-09-19T02:29:17;4.70;;;1.20;;
41927;SDS011;27616;51.420;6.788;2023-09-19T02:31:43;5.75;;;1.27;;
41927;SDS011;27616;51.420;6.788;2023-09-19T02:34:11;6.28;;;1.40;;
41927;SDS011;27616;51.420;6.788;2023-09-19T02:36:37;5.70;;;1.48;;
41927;SDS011;27616;51.420;6.788;2023-09-19T02:39:02;8.38;;;1.45;;
41927;SDS011;27616;51.420;6.788;2023-09-19T02:41:30;6.05;;;1.45;;
41927;SDS011;27616;51.420;6.788;2023-09-19T02:43:58;5.47;;;1.30;;
41927;SDS011;27616;51.420;6.788;2023-09-19T02:46:26;5.07;;;1.33;;
41927;SDS011;27616;51.420;6.788;2023-09-19T02:48:52;7.28;;;1.20;;
41927;SDS011;27616;51.420;6.788;2023-09-19T02:51:20;6.32;;;1.27;;
41927;SDS011;27616;51.420;6.788;2023-09-19T02:53:45;4.90;;;0.93;;
41927;SDS011;27616;51.420;6.788;2023-09-19T02:56:12;5.82;;;1.30;;
41927;SDS011;27616;51.420;6.788;2023-09-19T02:58:38;3.70;;;0.93;;
41927;SDS011;27616;51.420;6.788;2023-09-19T03:01:10;8.40;;;1.58;;
41927;SDS011;27616;51.420;6.788;2023-09-19T03:03:39;6.18;;;0.98;;
41927;SDS011;27616;51.420;6.788;2023-09-19T03:06:06;4.45;;;1.08;;
41927;SDS011;27616;51.420;6.788;2023-09-19T03:08:34;2.67;;;1.57;;
41927;SDS011;27616;51.420;6.788;2023-09-19T03:11:07;7.78;;;1.40;;
41927;SDS011;27616;51.420;6.788;2023-09-19T03:13:38;4.03;;;1.05;;
41927;SDS011;27616;51.420;6.788;2023-09-19T03:16:05;2.97;;;0.82;;
41927;SDS011;27616;51.420;6.788;2023-09-19T03:18:31;6.07;;;1.10;;
41927;SDS011;27616;51.420;6.788;2023-09-19T03:21:01;3.65;;;1.00;;
41927;SDS011;27616;51.420;6.788;2023-09-19T03:23:28;4.57;;;1.10;;
41927;SDS011;27616;51.420;6.788;2023-09-19T03:25:54;5.63;;;1.50;;
41927;SDS011;27616;51.420;6.788;2023-09-19T03:28:24;4.20;;;1.00;;
41927;SDS011;27616;51.420;6.788;2023-09-19T03:31:00;6.82;;;1.45;;
41927;SDS011;27616;51.420;6.788;2023-09-19T03:33:29;4.28;;;1.02;;
41927;SDS011;27616;51.420;6.788;2023-09-19T03:35:59;8.25;;;1.60;;
41927;SDS011;27616;51.420;6.788;2023-09-19T03:38:26;10.10;;;1.63;;
41927;SDS011;27616;51.420;6.788;2023-09-19T03:40:53;7.55;;;1.52;;
41927;SDS011;27616;51.420;6.788;2023-09-19T03:43:18;4.60;;;1.02;;
41927;SDS011;27616;51.420;6.788;2023-09-19T03:45:44;6.15;;;1.45;;
41927;SDS011;27616;51.420;6.788;2023-09-19T03:48:13;7.22;;;1.10;;
41927;SDS011;27616;51.420;6.788;2023-09-19T03:50:39;6.63;;;1.52;;
41927;SDS011;27616;51.420;6.788;2023-09-19T03:53:05;7.57;;;1.80;;
41927;SDS011;27616;51.420;6.788;2023-09-19T03:55:32;7.00;;;1.33;;
41927;SDS011;27616;51.420;6.788;2023-09-19T03:58:03;5.73;;;1.20;;
41927;SDS011;27616;51.420;6.788;2023-09-19T04:02:55;6.80;;;2.55;;
41927;SDS011;27616;51.420;6.788;2023-09-19T04:05:22;4.53;;;1.50;;
41927;SDS011;27616;51.420;6.788;2023-09-19T04:07:48;5.45;;;1.27;;
41927;SDS011;27616;51.420;6.788;2023-09-19T04:10:23;9.70;;;2.10;;
41927;SDS011;27616;51.420;6.788;2023-09-19T04:12:52;8.05;;;1.92;;
41927;SDS011;27616;51.420;6.788;2023-09-19T04:15:19;12.98;;;2.00;;
41927;SDS011;27616;51.420;6.788;2023-09-19T04:17:47;7.63;;;1.90;;
41927;SDS011;27616;51.420;6.788;2023-09-19T04:20:13;7.65;;;1.65;;
41927;SDS011;27616;51.420;6.788;2023-09-19T04:22:38;8.10;;;2.55;;
41927;SDS011;27616;51.420;6.788;2023-09-19T04:25:07;5.47;;;1.75;;
41927;SDS011;27616;51.420;6.788;2023-09-19T04:27:33;7.68;;;1.77;;
41927;SDS011;27616;51.420;6.788;2023-09-19T04:29:59;8.68;;;1.70;;
41927;SDS011;27616;51.420;6.788;2023-09-19T04:32:28;7.03;;;2.03;;
41927;SDS011;27616;51.420;6.788;2023-09-19T04:37:20;6.72;;;1.73;;
41927;SDS011;27616;51.420;6.788;2023-09-19T04:39:46;9.55;;;2.22;;
41927;SDS011;27616;51.420;6.788;2023-09-19T04:42:13;9.40;;;2.72;;
41927;SDS011;27616;51.420;6.788;2023-09-19T04:44:39;12.88;;;3.42;;
41927;SDS011;27616;51.420;6.788;2023-09-19T04:47:05;6.53;;;1.65;;
41927;SDS011;27616;51.420;6.788;2023-09-19T04:49:31;8.70;;;1.70;;
41927;SDS011;27616;51.420;6.788;2023-09-19T04:51:57;6.03;;;1.67;;
41927;SDS011;27616;51.420;6.788;2023-09-19T04:54:22;4.78;;;1.23;;
41927;SDS011;27616;51.420;6.788;2023-09-19T04:56:48;6.97;;;2.22;;
41927;SDS011;27616;51.420;6.788;2023-09-19T04:59:13;15.10;;;4.20;;
41927;SDS011;27616;51.420;6.788;2023-09-19T05:01:40;8.52;;;3.15;;
41927;SDS011;27616;51.420;6.788;2023-09-19T05:04:06;4.60;;;1.60;;
41927;SDS011;27616;51.420;6.788;2023-09-19T05:06:32;6.88;;;1.70;;
41927;SDS011;27616;51.420;6.788;2023-09-19T05:08:58;5.90;;;1.20;;
41927;SDS011;27616;51.420;6.788;2023-09-19T05:11:25;7.63;;;1.30;;
41927;SDS011;27616;51.420;6.788;2023-09-19T05:13:51;7.10;;;1.88;;
41927;SDS011;27616;51.420;6.788;2023-09-19T05:16:17;7.22;;;2.03;;
41927;SDS011;27616;51.420;6.788;2023-09-19T05:18:43;7.72;;;1.95;;
41927;SDS011;27616;51.420;6.788;2023-09-19T05:21:09;7.05;;;1.85;;
41927;SDS011;27616;51.420;6.788;2023-09-19T05:23:35;10.23;;;2.17;;
41927;SDS011;27616;51.420;6.788;2023-09-19T05:26:02;5.30;;;1.88;;
41927;SDS011;27616;51.420;6.788;2023-09-19T05:28:29;8.02;;;1.63;;
41927;SDS011;27616;51.420;6.788;2023-09-19T05:30:55;7.72;;;1.40;;
41927;SDS011;27616;51.420;6.788;2023-09-19T05:33:20;7.28;;;2.20;;
41927;SDS011;27616;51.420;6.788;2023-09-19T05:35:49;6.95;;;1.85;;
41927;SDS011;27616;51.420;6.788;2023-09-19T05:38:15;7.63;;;2.13;;
41927;SDS011;27616;51.420;6.788;2023-09-19T05:40:44;6.10;;;1.67;;
41927;SDS011;27616;51.420;6.788;2023-09-19T05:43:10;9.30;;;1.67;;
41927;SDS011;27616;51.420;6.788;2023-09-19T05:45:36;7.57;;;1.70;;
41927;SDS011;27616;51.420;6.788;2023-09-19T05:48:09;4.90;;;1.20;;
41927;SDS011;27616;51.420;6.788;2023-09-19T05:50:40;4.70;;;1.25;;
41927;SDS011;27616;51.420;6.788;2023-09-19T05:53:06;5.50;;;1.35;;
41927;SDS011;27616;51.420;6.788;2023-09-19T05:55:32;7.70;;;1.83;;
41927;SDS011;27616;51.420;6.788;2023-09-19T05:57:58;8.18;;;1.65;;
41927;SDS011;27616;51.420;6.788;2023-09-19T06:00:24;7.70;;;1.45;;
41927;SDS011;27616;51.420;6.788;2023-09-19T06:02:53;4.43;;;1.30;;
41927;SDS011;27616;51.420;6.788;2023-09-19T06:05:19;9.73;;;1.80;;
41927;SDS011;27616;51.420;6.788;2023-09-19T06:07:45;9.35;;;1.70;;
41927;SDS011;27616;51.420;6.788;2023-09-19T06:10:12;8.30;;;1.42;;
41927;SDS011;27616;51.420;6.788;2023-09-19T06:12:38;6.18;;;1.50;;
41927;SDS011;27616;51.420;6.788;2023-09-19T06:15:05;4.07;;;1.00;;
41927;SDS011;27616;51.420;6.788;2023-09-19T06:17:33;5.05;;;1.60;;
41927;SDS011;27616;51.420;6.788;2023-09-19T06:20:03;3.90;;;1.10;;
41927;SDS011;27616;51.420;6.788;2023-09-19T06:22:38;5.20;;;1.40;;
41927;SDS011;27616;51.420;6.788;2023-09-19T06:25:04;9.38;;;1.95;;
41927;SDS011;27616;51.420;6.788;2023-09-19T06:27:30;4.35;;;1.50;;
41927;SDS011;27616;51.420;6.788;2023-09-19T06:29:56;7.13;;;1.48;;
41927;SDS011;27616;51.420;6.788;2023-09-19T06:32:26;11.38;;;2.30;;
41927;SDS011;27616;51.420;6.788;2023-09-19T06:34:52;7.10;;;1.60;;
41927;SDS011;27616;51.420;6.788;2023-09-19T06:37:23;6.40;;;1.75;;
41927;SDS011;27616;51.420;6.788;2023-09-19T06:42:18;6.57;;;1.60;;
41927;SDS011;27616;51.420;6.788;2023-09-19T06:44:44;10.77;;;2.03;;
41927;SDS011;27616;51.420;6.788;2023-09-19T06:47:10;7.93;;;2.10;;
41927;SDS011;27616;51.420;6.788;2023-09-19T06:49:35;10.82;;;2.15;;
41927;SDS011;27616;51.420;6.788;2023-09-19T06:52:01;7.25;;;1.95;;
41927;SDS011;27616;51.420;6.788;2023-09-19T06:54:28;7.63;;;1.67;;
41927;SDS011;27616;51.420;6.788;2023-09-19T06:56:56;8.73;;;2.00;;
41927;SDS011;27616;51.420;6.788;2023-09-19T06:59:25;5.00;;;1.30;;
41927;SDS011;27616;51.420;6.788;2023-09-19T07:01:51;6.05;;;1.73;;
41927;SDS011;27616;51.420;6.788;2023-09-19T07:04:17;10.10;;;2.35;;
41927;SDS011;27616;51.420;6.788;2023-09-19T07:06:44;7.72;;;1.60;;
41927;SDS011;27616;51.420;6.788;2023-09-19T07:09:15;5.93;;;1.63;;
41927;SDS011;27616;51.420;6.788;2023-09-19T07:11:44;9.57;;;2.00;;
41927;SDS011;27616;51.420;6.788;2023-09-19T07:14:10;4.95;;;1.55;;
41927;SDS011;27616;51.420;6.788;2023-09-19T07:16:39;6.93;;;1.52;;
41927;SDS011;27616;51.420;6.788;2023-09-19T07:19:07;8.13;;;2.65;;
41927;SDS011;27616;51.420;6.788;2023-09-19T07:21:33;5.05;;;1.73;;
41927;SDS011;27616;51.420;6.788;2023-09-19T07:24:00;12.20;;;2.83;;
41927;SDS011;27616;51.420;6.788;2023-09-19T07:26:27;5.65;;;2.13;;
41927;SDS011;27616;51.420;6.788;2023-09-19T07:28:53;7.97;;;1.85;;
41927;SDS011;27616;51.420;6.788;2023-09-19T07:31:19;7.40;;;2.17;;
41927;SDS011;27616;51.420;6.788;2023-09-19T07:33:44;6.25;;;1.75;;
41927;SDS011;27616;51.420;6.788;2023-09-19T07:36:10;15.93;;;5.82;;
41927;SDS011;27616;51.420;6.788;2023-09-19T07:38:38;15.07;;;6.60;;
41927;SDS011;27616;51.420;6.788;2023-09-19T07:41:05;18.85;;;6.82;;
41927;SDS011;27616;51.420;6.788;2023-09-19T07:43:30;8.95;;;2.95;;
41927;SDS011;27616;51.420;6.788;2023-09-19T07:45:56;9.45;;;3.10;;
41927;SDS011;27616;51.420;6.788;2023-09-19T07:50:51;7.28;;;1.73;;
41927;SDS011;27616;51.420;6.788;2023-09-19T07:53:16;11.93;;;1.65;;
41927;SDS011;27616;51.420;6.788;2023-09-19T07:55:43;9.43;;;2.35;;
41927;SDS011;27616;51.420;6.788;2023-09-19T07:58:08;8.80;;;1.60;;
41927;SDS011;27616;51.420;6.788;2023-09-19T08:00:34;10.25;;;2.40;;
41927;SDS011;27616;51.420;6.788;2023-09-19T08:03:00;5.53;;;1.65;;
41927;SDS011;27616;51.420;6.788;2023-09-19T08:05:26;9.52;;;2.15;;
41927;SDS011;27616;51.420;6.788;2023-09-19T08:07:52;7.53;;;2.00;;
41927;SDS011;27616;51.420;6.788;2023-09-19T08:10:19;6.68;;;1.35;;
41927;SDS011;27616;51.420;6.788;2023-09-19T08:12:46;7.22;;;1.85;;
41927;SDS011;27616;51.420;6.788;2023-09-19T08:15:16;10.73;;;1.95;;
41927;SDS011;27616;51.420;6.788;2023-09-19T08:17:45;6.78;;;1.70;;
41927;SDS011;27616;51.420;6.788;2023-09-19T08:20:11;5.90;;;2.00;;
41927;SDS011;27616;51.420;6.788;2023-09-19T08:22:49;6.43;;;2.10;;
41927;SDS011;27616;51.420;6.788;2023-09-19T08:25:17;7.93;;;2.13;;
41927;SDS011;27616;51.420;6.788;2023-09-19T08:27:43;17.17;;;5.60;;
41927;SDS011;27616;51.420;6.788;2023-09-19T08:30:13;7.45;;;2.30;;
41927;SDS011;27616;51.420;6.788;2023-09-19T08:32:43;6.78;;;1.80;;
41927;SDS011;27616;51.420;6.788;2023-09-19T08:35:10;4.95;;;1.45;;
41927;SDS011;27616;51.420;6.788;2023-09-19T08:37:35;7.80;;;1.85;;
41927;SDS011;27616;51.420;6.788;2023-09-19T08:40:01;6.45;;;1.60;;
41927;SDS011;27616;51.420;6.788;2023-09-19T08:42:27;4.70;;;1.50;;
41927;SDS011;27616;51.420;6.788;2023-09-19T08:44:53;6.45;;;1.45;;
41927;SDS011;27616;51.420;6.788;2023-09-19T08:47:30;4.60;;;1.13;;
41927;SDS011;27616;51.420;6.788;2023-09-19T08:52:53;5.80;;;1.35;;
41927;SDS011;27616;51.420;6.788;2023-09-19T08:55:23;4.07;;;1.10;;
41927;SDS011;27616;51.420;6.788;2023-09-19T08:57:59;9.05;;;1.67;;
41927;SDS011;27616;51.420;6.788;2023-09-19T09:00:27;3.30;;;1.15;;
41927;SDS011;27616;51.420;6.788;2023-09-19T09:02:54;13.77;;;2.40;;
41927;SDS011;27616;51.420;6.788;2023-09-19T09:05:22;9.90;;;2.42;;
41927;SDS011;27616;51.420;6.788;2023-09-19T09:07:52;8.00;;;1.98;;
41927;SDS011;27616;51.420;6.788;2023-09-19T09:10:20;9.38;;;1.75;;
41927;SDS011;27616;51.420;6.788;2023-09-19T09:12:48;6.63;;;1.90;;
41927;SDS011;27616;51.420;6.788;2023-09-19T09:15:21;7.32;;;1.85;;
41927;SDS011;27616;51.420;6.788;2023-09-19T09:17:48;7.28;;;1.60;;
41927;SDS011;27616;51.420;6.788;2023-09-19T09:20:19;7.35;;;1.92;;
41927;SDS011;27616;51.420;6.788;2023-09-19T09:22:56;8.77;;;2.28;;
41927;SDS011;27616;51.420;6.788;2023-09-19T09:28:21;7.70;;;1.90;;
41927;SDS011;27616;51.420;6.788;2023-09-19T09:30:51;8.20;;;1.80;;
41927;SDS011;27616;51.420;6.788;2023-09-19T09:33:17;6.00;;;1.30;;
41927;SDS011;27616;51.420;6.788;2023-09-19T09:35:47;4.22;;;1.45;;
41927;SDS011;27616;51.420;6.788;2023-09-19T09:38:22;3.53;;;1.25;;
41927;SDS011;27616;51.420;6.788;2023-09-19T09:40:56;6.13;;;1.90;;
41927;SDS011;27616;51.420;6.788;2023-09-19T09:43:32;7.20;;;1.77;;
41927;SDS011;27616;51.420;6.788;2023-09-19T09:46:07;7.47;;;1.80;;
41927;SDS011;27616;51.420;6.788;2023-09-19T09:51:45;6.35;;;2.08;;
41927;SDS011;27616;51.420;6.788;2023-09-19T09:54:22;7.55;;;1.70;;
41927;SDS011;27616;51.420;6.788;2023-09-19T09:56:56;8.30;;;1.92;;
41927;SDS011;27616;51.420;6.788;2023-09-19T10:02:26;9.45;;;1.92;;
41927;SDS011;27616;51.420;6.788;2023-09-19T10:05:14;10.15;;;2.40;;
41927;SDS011;27616;51.420;6.788;2023-09-19T10:07:47;9.40;;;1.85;;
41927;SDS011;27616;51.420;6.788;2023-09-19T10:10:34;4.72;;;1.48;;
41927;SDS011;27616;51.420;6.788;2023-09-19T10:13:14;6.97;;;2.03;;
41927;SDS011;27616;51.420;6.788;2023-09-19T10:15:43;7.10;;;1.73;;
41927;SDS011;27616;51.420;6.788;2023-09-19T10:18:16;5.28;;;1.42;;
41927;SDS011;27616;51.420;6.788;2023-09-19T10:20:45;3.80;;;1.35;;
41927;SDS011;27616;51.420;6.788;2023-09-19T10:23:13;7.13;;;1.50;;
41927;SDS011;27616;51.420;6.788;2023-09-19T10:25:42;9.02;;;2.40;;
41927;SDS011;27616;51.420;6.788;2023-09-19T10:28:12;5.43;;;1.30;;
41927;SDS011;27616;51.420;6.788;2023-09-19T10:30:43;4.25;;;1.38;;
41927;SDS011;27616;51.420;6.788;2023-09-19T10:33:13;8.60;;;1.48;;
41927;SDS011;27616;51.420;6.788;2023-09-19T10:35:46;5.13;;;1.23;;
41927;SDS011;27616;51.420;6.788;2023-09-19T10:38:14;5.55;;;1.40;;
41927;SDS011;27616;51.420;6.788;2023-09-19T10:40:44;6.35;;;1.50;;
41927;SDS011;27616;51.420;6.788;2023-09-19T10:43:15;4.25;;;1.30;;
41927;SDS011;27616;51.420;6.788;2023-09-19T10:45:47;4.65;;;1.00;;
41927;SDS011;27616;51.420;6.788;2023-09-19T10:48:17;5.40;;;1.20;;
41927;SDS011;27616;51.420;6.788;2023-09-19T10:50:52;9.50;;;2.53;;
41927;SDS011;27616;51.420;6.788;2023-09-19T10:53:24;3.85;;;0.93;;
41927;SDS011;27616;51.420;6.788;2023-09-19T10:55:52;5.82;;;1.20;;
41927;SDS011;27616;51.420;6.788;2023-09-19T10:58:26;5.00;;;1.48;;
41927;SDS011;27616;51.420;6.788;2023-09-19T11:00:56;4.13;;;1.27;;
41927;SDS011;27616;51.420;6.788;2023-09-19T11:03:32;4.57;;;1.20;;
41927;SDS011;27616;51.420;6.788;2023-09-19T11:06:05;6.80;;;1.65;;
41927;SDS011;27616;51.420;6.788;2023-09-19T11:08:54;11.85;;;3.10;;
41927;SDS011;27616;51.420;6.788;2023-09-19T11:11:39;6.00;;;1.58;;
41927;SDS011;27616;51.420;6.788;2023-09-19T11:14:50;9.98;;;3.28;;
41927;SDS011;27616;51.420;6.788;2023-09-19T11:36:09;3.63;;;1.45;;
41927;SDS011;27616;51.420;6.788;2023-09-19T11:43:50;7.60;;;2.00;;
41927;SDS011;27616;51.420;6.788;2023-09-19T11:46:16;4.80;;;1.58;;
41927;SDS011;27616;51.420;6.788;2023-09-19T11:48:49;4.03;;;1.48;;
41927;SDS011;27616;51.420;6.788;2023-09-19T11:51:17;5.32;;;1.38;;
41927;SDS011;27616;51.420;6.788;2023-09-19T11:53:47;7.18;;;1.67;;
41927;SDS011;27616;51.420;6.788;2023-09-19T11:56:15;4.85;;;1.52;;
41927;SDS011;27616;51.420;6.788;2023-09-19T12:01:12;7.90;;;1.88;;
41927;SDS011;27616;51.420;6.788;2023-09-19T12:03:45;7.97;;;1.65;;
41927;SDS011;27616;51.420;6.788;2023-09-19T12:06:15;4.45;;;1.90;;
41927;SDS011;27616;51.420;6.788;2023-09-19T12:08:42;5.05;;;1.20;;
41927;SDS011;27616;51.420;6.788;2023-09-19T12:11:15;6.45;;;1.10;;
41927;SDS011;27616;51.420;6.788;2023-09-19T12:13:42;3.05;;;1.30;;
41927;SDS011;27616;51.420;6.788;2023-09-19T12:16:16;4.80;;;1.20;;
41927;SDS011;27616;51.420;6.788;2023-09-19T12:18:45;5.68;;;1.30;;
41927;SDS011;27616;51.420;6.788;2023-09-19T12:21:31;5.53;;;1.27;;
41927;SDS011;27616;51.420;6.788;2023-09-19T12:26:23;3.17;;;1.10;;
41927;SDS011;27616;51.420;6.788;2023-09-19T12:28:51;5.25;;;1.17;;
41927;SDS011;27616;51.420;6.788;2023-09-19T12:31:19;3.88;;;1.25;;
41927;SDS011;27616;51.420;6.788;2023-09-19T12:33:45;2.35;;;0.93;;
41927;SDS011;27616;51.420;6.788;2023-09-19T12:36:19;3.80;;;1.08;;
41927;SDS011;27616;51.420;6.788;2023-09-19T12:38:53;6.57;;;1.17;;
41927;SDS011;27616;51.420;6.788;2023-09-19T12:41:20;2.65;;;0.93;;
41927;SDS011;27616;51.420;6.788;2023-09-19T12:43:47;4.32;;;1.20;;
41927;SDS011;27616;51.420;6.788;2023-09-19T12:46:13;2.90;;;1.10;;
41927;SDS011;27616;51.420;6.788;2023-09-19T12:48:40;4.07;;;1.20;;
41927;SDS011;27616;51.420;6.788;2023-09-19T12:51:09;7.07;;;1.08;;
41927;SDS011;27616;51.420;6.788;2023-09-19T12:53:41;5.28;;;1.02;;
41927;SDS011;27616;51.420;6.788;2023-09-19T12:56:14;3.95;;;0.90;;
41927;SDS011;27616;51.420;6.788;2023-09-19T13:01:15;3.58;;;1.00;;
41927;SDS011;27616;51.420;6.788;2023-09-19T13:03:41;6.97;;;1.10;;
41927;SDS011;27616;51.420;6.788;2023-09-19T13:06:07;5.07;;;1.05;;
41927;SDS011;27616;51.420;6.788;2023-09-19T13:08:35;4.03;;;0.80;;
41927;SDS011;27616;51.420;6.788;2023-09-19T13:11:13;3.40;;;0.98;;
41927;SDS011;27616;51.420;6.788;2023-09-19T13:13:46;5.47;;;1.77;;
41927;SDS011;27616;51.420;6.788;2023-09-19T13:16:33;3.33;;;0.98;;
41927;SDS011;27616;51.420;6.788;2023-09-19T13:18:59;3.53;;;1.20;;
41927;SDS011;27616;51.420;6.788;2023-09-19T13:21:34;3.15;;;0.75;;
41927;SDS011;27616;51.420;6.788;2023-09-19T13:26:50;2.05;;;0.98;;
41927;SDS011;27616;51.420;6.788;2023-09-19T13:29:16;6.28;;;1.42;;
41927;SDS011;27616;51.420;6.788;2023-09-19T13:31:46;3.33;;;1.20;;
41927;SDS011;27616;51.420;6.788;2023-09-19T13:34:13;5.22;;;0.98;;
41927;SDS011;27616;51.420;6.788;2023-09-19T13:36:40;3.33;;;0.90;;
41927;SDS011;27616;51.420;6.788;2023-09-19T13:39:07;2.20;;;0.70;;
41927;SDS011;27616;51.420;6.788;2023-09-19T13:41:34;6.78;;;1.23;;
41927;SDS011;27616;51.420;6.788;2023-09-19T13:44:02;2.90;;;0.88;;
41927;SDS011;27616;51.420;6.788;2023-09-19T13:46:28;4.15;;;0.80;;
41927;SDS011;27616;51.420;6.788;2023-09-19T13:48:56;3.75;;;0.90;;
41927;SDS011;27616;51.420;6.788;2023-09-19T13:51:25;3.05;;;0.80;;
41927;SDS011;27616;51.420;6.788;2023-09-19T13:53:51;5.72;;;1.27;;
41927;SDS011;27616;51.420;6.788;2023-09-19T13:56:17;3.78;;;0.65;;
41927;SDS011;27616;51.420;6.788;2023-09-19T13:58:43;3.50;;;0.63;;
41927;SDS011;27616;51.420;6.788;2023-09-19T14:01:09;2.08;;;1.08;;
41927;SDS011;27616;51.420;6.788;2023-09-19T14:03:37;2.70;;;0.73;;
41927;SDS011;27616;51.420;6.788;2023-09-19T14:06:12;4.68;;;0.80;;
41927;SDS011;27616;51.420;6.788;2023-09-19T14:08:38;2.63;;;1.05;;
41927;SDS011;27616;51.420;6.788;2023-09-19T14:11:07;2.15;;;0.70;;
41927;SDS011;27616;51.420;6.788;2023-09-19T14:13:33;2.90;;;0.63;;
41927;SDS011;27616;51.420;6.788;2023-09-19T14:16:03;3.28;;;0.70;;
41927;SDS011;27616;51.420;6.788;2023-09-19T14:18:30;3.88;;;1.42;;
41927;SDS011;27616;51.420;6.788;2023-09-19T14:20:56;6.30;;;1.40;;
41927;SDS011;27616;51.420;6.788;2023-09-19T14:23:22;2.40;;;0.90;;
41927;SDS011;27616;51.420;6.788;2023-09-19T14:25:48;3.03;;;0.98;;
41927;SDS011;27616;51.420;6.788;2023-09-19T14:28:15;3.40;;;1.10;;
41927;SDS011;27616;51.420;6.788;2023-09-19T14:30:41;3.53;;;1.27;;
41927;SDS011;27616;51.420;6.788;2023-09-19T14:33:06;3.17;;;0.88;;
41927;SDS011;27616;51.420;6.788;2023-09-19T14:35:32;2.55;;;0.80;;
41927;SDS011;27616;51.420;6.788;2023-09-19T14:37:58;6.75;;;1.13;;
41927;SDS011;27616;51.420;6.788;2023-09-19T14:40:23;3.65;;;0.95;;
41927;SDS011;27616;51.420;6.788;2023-09-19T14:42:50;1.83;;;0.82;;
41927;SDS011;27616;51.420;6.788;2023-09-19T14:45:16;3.88;;;1.00;;
41927;SDS011;27616;51.420;6.788;2023-09-19T14:47:43;3.28;;;0.98;;
41927;SDS011;27616;51.420;6.788;2023-09-19T14:50:12;6.45;;;0.90;;
41927;SDS011;27616;51.420;6.788;2023-09-19T14:52:38;3.08;;;0.77;;
41927;SDS011;27616;51.420;6.788;2023-09-19T14:55:05;3.85;;;0.80;;
41927;SDS011;27616;51.420;6.788;2023-09-19T14:57:33;1.75;;;0.63;;
41927;SDS011;27616;51.420;6.788;2023-09-19T14:59:59;3.05;;;0.70;;
41927;SDS011;27616;51.420;6.788;2023-09-19T15:02:25;3.72;;;1.20;;
41927;SDS011;27616;51.420;6.788;2023-09-19T15:04:51;3.20;;;1.13;;
41927;SDS011;27616;51.420;6.788;2023-09-19T15:07:17;2.08;;;0.57;;
41927;SDS011;27616;51.420;6.788;2023-09-19T15:09:43;2.35;;;0.75;;
41927;SDS011;27616;51.420;6.788;2023-09-19T15:12:09;2.78;;;1.02;;
41927;SDS011;27616;51.420;6.788;2023-09-19T15:14:39;2.67;;;0.60;;
41927;SDS011;27616;51.420;6.788;2023-09-19T15:17:05;2.63;;;0.80;;
41927;SDS011;27616;51.420;6.788;2023-09-19T15:19:31;3.78;;;0.80;;
41927;SDS011;27616;51.420;6.788;2023-09-19T15:21:57;2.58;;;1.00;;
41927;SDS011;27616;51.420;6.788;2023-09-19T15:24:23;2.35;;;0.88;;
41927;SDS011;27616;51.420;6.788;2023-09-19T15:26:51;2.92;;;0.70;;
41927;SDS011;27616;51.420;6.788;2023-09-19T15:29:17;5.22;;;0.63;;
41927;SDS011;27616;51.420;6.788;2023-09-19T15:31:44;1.92;;;0.77;;
41927;SDS011;27616;51.420;6.788;2023-09-19T15:34:10;1.10;;;0.50;;
41927;SDS011;27616;51.420;6.788;2023-09-19T15:36:39;2.53;;;0.80;;
41927;SDS011;27616;51.420;6.788;2023-09-19T15:39:07;1.95;;;0.68;;
41927;SDS011;27616;51.420;6.788;2023-09-19T15:41:39;3.03;;;1.25;;
41927;SDS011;27616;51.420;6.788;2023-09-19T15:44:12;3.92;;;1.08;;
41927;SDS011;27616;51.420;6.788;2023-09-19T15:46:39;1.08;;;0.38;;
41927;SDS011;27616;51.420;6.788;2023-09-19T15:49:05;1.75;;;0.60;;
41927;SDS011;27616;51.420;6.788;2023-09-19T15:51:32;1.85;;;0.70;;
41927;SDS011;27616;51.420;6.788;2023-09-19T15:53:58;7.88;;;3.00;;
41927;SDS011;27616;51.420;6.788;2023-09-19T15:56:27;5.65;;;2.25;;
41927;SDS011;27616;51.420;6.788;2023-09-19T15:58:54;3.15;;;1.40;;
41927;SDS011;27616;51.420;6.788;2023-09-19T16:01:21;5.40;;;2.05;;
41927;SDS011;27616;51.420;6.788;2023-09-19T16:03:47;4.53;;;1.70;;
41927;SDS011;27616;51.420;6.788;2023-09-19T16:06:17;3.42;;;1.38;;